Al Rawdah — V7VM8 — position and weather

sailwx.info

Track history (hours):
 
Tides and Currents Weather Stations Pressure Air Temp Water Temp Dewpoint Dewpoint Depression Visibility Wind Speed Wind Dir Waves Ship Positions

Al Rawdah

Last reported at 2014-Dec-14 10:23 UTC. Time now 2014-Dec-19 03:56 UTC.
Position N 33°60' E 025°45'.

Length 307 m; draft 12.3 m.

Type: Ship (hazmat cat A). MMSI: 538004160.

Date/timePositionNaut miles runAvg speedWind from/ knotsBaromVisibWave heightAir tempDewpointWater temp
2014-Dec-14 10:23N 33°60' E 025°45'1417.2
2014-Dec-14 09:33N 34°04' E 025°29'2617.5
2014-Dec-14 08:04N 34°15' E 025°01'1717.6
2014-Dec-14 07:04N 34°24' E 024°42'1517.8
2014-Dec-14 06:15N 34°32' E 024°28'1417.7
2014-Dec-14 05:27N 34°38' E 024°12'2217.8
2014-Dec-14 04:12N 34°47' E 023°47'3217.9
2014-Dec-14 02:26N 35°00' E 023°12'131059.2
2014-Dec-13 04:17N 51°56' E 004°12'78872.6
2014-Dec-12 17:26N 40°20' E 013°03'22819.0
2014-Dec-12 05:26N 43°06' E 009°35'1719.1
2014-Dec-12 04:33N 43°22' E 009°27'2019.6
2014-Dec-12 03:33N 43°40' E 009°18'1919.2
2014-Dec-12 02:33N 43°58' E 009°09'2019.5
2014-Dec-12 01:33N 44°16' E 008°59'9 8.3
2014-Dec-12 00:32N 44°24' E 008°55'0 0.1
2014-Dec-11 23:32N 44°24' E 008°55'0 0.1
2014-Dec-11 22:23N 44°24' E 008°55'0 0.0
2014-Dec-11 21:29N 44°24' E 008°55'0 0.1
2014-Dec-11 20:32N 44°24' E 008°55'0 0.0
2014-Dec-11 19:29N 44°24' E 008°55'0 0.0
2014-Dec-11 18:32N 44°24' E 008°55'0 0.0
2014-Dec-11 17:29N 44°24' E 008°55'0 0.0
2014-Dec-11 16:32N 44°24' E 008°55'0 0.0
2014-Dec-11 15:29N 44°24' E 008°55'0 0.0
2014-Dec-11 14:29N 44°24' E 008°55'0 0.0
2014-Dec-11 13:17N 44°24' E 008°55'0 0.0
2014-Dec-11 12:29N 44°24' E 008°55'0 0.0
2014-Dec-11 11:29N 44°24' E 008°55'0 0.0
2014-Dec-11 10:29N 44°24' E 008°55'0 0.0
2014-Dec-11 09:17N 44°24' E 008°55'0 0.0
2014-Dec-11 08:29N 44°24' E 008°55'0 0.0
2014-Dec-11 07:29N 44°24' E 008°55'0 0.0
2014-Dec-11 06:29N 44°24' E 008°55'0 0.0
2014-Dec-11 05:29N 44°24' E 008°55'0 0.0
2014-Dec-11 04:17N 44°24' E 008°55'0 0.0
2014-Dec-11 03:32N 44°24' E 008°55'0 0.0
2014-Dec-11 02:32N 44°24' E 008°55'0 0.0
2014-Dec-11 01:29N 44°24' E 008°55'0 0.0
2014-Dec-11 00:32N 44°24' E 008°55'0 0.1
2014-Dec-10 23:32N 44°24' E 008°55'0 0.1
2014-Dec-10 22:29N 44°24' E 008°55'0 0.0
2014-Dec-10 21:29N 44°24' E 008°55'0 0.0
2014-Dec-10 20:29N 44°24' E 008°55'0 0.0
2014-Dec-10 19:29N 44°24' E 008°55'0 0.0
2014-Dec-10 18:33N 44°24' E 008°55'4 3.8
2014-Dec-10 17:33N 44°21' E 008°58'5 5.3
2014-Dec-10 16:33N 44°16' E 008°56'1514.9
2014-Dec-10 15:33N 44°04' E 008°44'1818.4
2014-Dec-10 14:33N 43°49' E 008°30'6219.6
2014-Dec-10 11:22N 42°58' E 007°41'1922.8
2014-Dec-10 10:33N 42°46' E 007°21'1817.8
2014-Dec-10 09:33N 42°37' E 006°60'1413.9
2014-Dec-10 08:33N 42°37' E 006°41'11311.0
2014-Dec-09 22:16N 41°57' E 004°18'810.1
2014-Dec-09 21:29N 41°51' E 004°10'11 8.9
2014-Dec-09 20:15N 41°44' E 003°59'11 6.6
2014-Dec-09 18:33N 41°35' E 003°50'6 5.7
2014-Dec-09 17:30N 41°31' E 003°44'5 5.5
2014-Dec-09 16:33N 41°28' E 003°39'7 6.1
2014-Dec-09 15:29N 41°23' E 003°33'7 6.0
2014-Dec-09 14:17N 41°18' E 003°26'6 7.4
2014-Dec-09 13:29N 41°14' E 003°20'7 7.4
2014-Dec-09 12:32N 41°10' E 003°13'7 7.4
2014-Dec-09 11:33N 41°04' E 003°07'7 7.2
2014-Dec-09 10:33N 40°59' E 003°00'8 8.4
2014-Dec-09 09:33N 40°52' E 002°53'10 9.6
2014-Dec-09 08:33N 40°45' E 002°45'1110.9
2014-Dec-09 07:33N 40°38' E 002°34'1212.0
2014-Dec-09 06:33N 40°31' E 002°21'1212.0
2014-Dec-09 05:33N 40°24' E 002°09'1212.0
2014-Dec-09 04:33N 40°17' E 001°56'1211.9
2014-Dec-09 03:34N 40°09' E 001°44'1212.3
2014-Dec-09 02:33N 40°03' E 001°30'1312.6
2014-Dec-09 01:33N 39°57' E 001°16'1212.3
2014-Dec-09 00:34N 39°51' E 001°02'1110.3
2014-Dec-08 23:27N 39°44' E 000°50'4511.5
2014-Dec-08 19:33N 39°28' W 000°04'1111.0
2014-Dec-08 18:33N 39°26' W 000°18'1 1.0
2014-Dec-08 17:33N 39°27' W 000°19'0 0.0
2014-Dec-08 16:33N 39°27' W 000°19'0 0.0
2014-Dec-08 15:33N 39°27' W 000°19'0 0.0
2014-Dec-08 14:33N 39°27' W 000°19'0 0.0
2014-Dec-08 13:33N 39°27' W 000°19'0 0.0
2014-Dec-08 12:33N 39°27' W 000°19'0 0.0
2014-Dec-08 11:33N 39°27' W 000°19'0 0.0
2014-Dec-08 10:33N 39°27' W 000°19'0 0.0
2014-Dec-08 09:33N 39°27' W 000°19'0 0.0
2014-Dec-08 08:33N 39°27' W 000°19'0 0.0
2014-Dec-08 07:33N 39°27' W 000°19'0 0.0
2014-Dec-08 06:33N 39°27' W 000°19'0 0.0
2014-Dec-08 05:33N 39°27' W 000°19'0 0.0
2014-Dec-08 04:33N 39°27' W 000°19'0 0.0
2014-Dec-08 03:33N 39°27' W 000°19'0 0.1
2014-Dec-08 02:33N 39°27' W 000°19'2 2.0
2014-Dec-08 01:33N 39°25' W 000°17'1110.4
2014-Dec-08 00:31N 39°18' W 000°07'8410.6
2014-Dec-07 16:32N 37°53' W 000°13'1515.5
2014-Dec-07 15:34N 37°41' W 000°24'1515.0
2014-Dec-07 14:33N 37°29' W 000°36'1514.9
2014-Dec-07 13:34N 37°19' W 000°50'1615.6
2014-Dec-07 12:33N 37°09' W 001°05'20414.6
2014-Dec-06 22:33N 36°06' W 005°06'1413.9
2014-Dec-06 21:34N 36°06' W 005°23'2 2.2
2014-Dec-06 20:34N 36°08' W 005°25'0 0.0
2014-Dec-06 19:31N 36°08' W 005°25'0 0.0
2014-Dec-06 18:33N 36°08' W 005°25'0 0.0
2014-Dec-06 17:30N 36°08' W 005°25'0 0.0
2014-Dec-06 16:31N 36°08' W 005°25'0 0.0
2014-Dec-06 15:25N 36°08' W 005°25'0 0.0
2014-Dec-06 14:33N 36°08' W 005°25'0 0.0
2014-Dec-06 13:06N 36°08' W 005°25'0 0.0
2014-Dec-06 12:33N 36°08' W 005°25'0 0.0
2014-Dec-06 11:34N 36°08' W 005°25'0 0.0
2014-Dec-06 10:34N 36°08' W 005°25'0 0.0
2014-Dec-06 09:31N 36°08' W 005°25'0 0.0
2014-Dec-06 08:31N 36°08' W 005°25'0 0.0
2014-Dec-06 07:31N 36°08' W 005°25'0 0.0
2014-Dec-06 06:33N 36°08' W 005°25'2 2.1
2014-Dec-06 05:33N 36°07' W 005°23'5 4.6
2014-Dec-06 04:32N 36°03' W 005°20'5 4.7
2014-Dec-06 03:33N 35°59' W 005°24'13 9.9
2014-Dec-06 02:12N 35°55' W 005°40'1111.7
2014-Dec-06 01:17N 35°55' W 005°53'1013.2
2014-Dec-06 00:33N 35°54' W 006°05'  
Track history (hours):
 
Tides and Currents Weather Stations Pressure Air Temp Water Temp Dewpoint Dewpoint Depression Visibility Wind Speed Wind Dir Waves Ship Positions

Al Rawdah

Last reported at 2014-Dec-14 10:23 UTC. Time now 2014-Dec-19 03:56 UTC.
Position N 33°60' E 025°45'.

Length 307 m; draft 12.3 m.

Type: Ship (hazmat cat A). MMSI: 538004160.

Date/timePositionNaut miles runAvg speedWind from/ knotsBaromVisibWave heightAir tempDewpointWater temp
2014-Dec-14 10:23N 33°60' E 025°45'1417.2
2014-Dec-14 09:33N 34°04' E 025°29'2617.5
2014-Dec-14 08:04N 34°15' E 025°01'1717.6
2014-Dec-14 07:04N 34°24' E 024°42'1517.8
2014-Dec-14 06:15N 34°32' E 024°28'1417.7
2014-Dec-14 05:27N 34°38' E 024°12'2217.8
2014-Dec-14 04:12N 34°47' E 023°47'3217.9
2014-Dec-14 02:26N 35°00' E 023°12'131059.2
2014-Dec-13 04:17N 51°56' E 004°12'78872.6
2014-Dec-12 17:26N 40°20' E 013°03'22819.0
2014-Dec-12 05:26N 43°06' E 009°35'1719.1
2014-Dec-12 04:33N 43°22' E 009°27'2019.6
2014-Dec-12 03:33N 43°40' E 009°18'1919.2
2014-Dec-12 02:33N 43°58' E 009°09'2019.5
2014-Dec-12 01:33N 44°16' E 008°59'9 8.3
2014-Dec-12 00:32N 44°24' E 008°55'0 0.1
2014-Dec-11 23:32N 44°24' E 008°55'0 0.1
2014-Dec-11 22:23N 44°24' E 008°55'0 0.0
2014-Dec-11 21:29N 44°24' E 008°55'0 0.1
2014-Dec-11 20:32N 44°24' E 008°55'0 0.0
2014-Dec-11 19:29N 44°24' E 008°55'0 0.0
2014-Dec-11 18:32N 44°24' E 008°55'0 0.0
2014-Dec-11 17:29N 44°24' E 008°55'0 0.0
2014-Dec-11 16:32N 44°24' E 008°55'0 0.0
2014-Dec-11 15:29N 44°24' E 008°55'0 0.0
2014-Dec-11 14:29N 44°24' E 008°55'0 0.0
2014-Dec-11 13:17N 44°24' E 008°55'0 0.0
2014-Dec-11 12:29N 44°24' E 008°55'0 0.0
2014-Dec-11 11:29N 44°24' E 008°55'0 0.0
2014-Dec-11 10:29N 44°24' E 008°55'0 0.0
2014-Dec-11 09:17N 44°24' E 008°55'0 0.0
2014-Dec-11 08:29N 44°24' E 008°55'0 0.0
2014-Dec-11 07:29N 44°24' E 008°55'0 0.0
2014-Dec-11 06:29N 44°24' E 008°55'0 0.0
2014-Dec-11 05:29N 44°24' E 008°55'0 0.0
2014-Dec-11 04:17N 44°24' E 008°55'0 0.0
2014-Dec-11 03:32N 44°24' E 008°55'0 0.0
2014-Dec-11 02:32N 44°24' E 008°55'0 0.0
2014-Dec-11 01:29N 44°24' E 008°55'0 0.0
2014-Dec-11 00:32N 44°24' E 008°55'0 0.1
2014-Dec-10 23:32N 44°24' E 008°55'0 0.1
2014-Dec-10 22:29N 44°24' E 008°55'0 0.0
2014-Dec-10 21:29N 44°24' E 008°55'0 0.0
2014-Dec-10 20:29N 44°24' E 008°55'0 0.0
2014-Dec-10 19:29N 44°24' E 008°55'0 0.0
2014-Dec-10 18:33N 44°24' E 008°55'4 3.8
2014-Dec-10 17:33N 44°21' E 008°58'5 5.3
2014-Dec-10 16:33N 44°16' E 008°56'1514.9
2014-Dec-10 15:33N 44°04' E 008°44'1818.4
2014-Dec-10 14:33N 43°49' E 008°30'6219.6
2014-Dec-10 11:22N 42°58' E 007°41'1922.8
2014-Dec-10 10:33N 42°46' E 007°21'1817.8
2014-Dec-10 09:33N 42°37' E 006°60'1413.9
2014-Dec-10 08:33N 42°37' E 006°41'11311.0
2014-Dec-09 22:16N 41°57' E 004°18'810.1
2014-Dec-09 21:29N 41°51' E 004°10'11 8.9
2014-Dec-09 20:15N 41°44' E 003°59'11 6.6
2014-Dec-09 18:33N 41°35' E 003°50'6 5.7
2014-Dec-09 17:30N 41°31' E 003°44'5 5.5
2014-Dec-09 16:33N 41°28' E 003°39'7 6.1
2014-Dec-09 15:29N 41°23' E 003°33'7 6.0
2014-Dec-09 14:17N 41°18' E 003°26'6 7.4
2014-Dec-09 13:29N 41°14' E 003°20'7 7.4
2014-Dec-09 12:32N 41°10' E 003°13'7 7.4
2014-Dec-09 11:33N 41°04' E 003°07'7 7.2
2014-Dec-09 10:33N 40°59' E 003°00'8 8.4
2014-Dec-09 09:33N 40°52' E 002°53'10 9.6
2014-Dec-09 08:33N 40°45' E 002°45'1110.9
2014-Dec-09 07:33N 40°38' E 002°34'1212.0
2014-Dec-09 06:33N 40°31' E 002°21'1212.0
2014-Dec-09 05:33N 40°24' E 002°09'1212.0
2014-Dec-09 04:33N 40°17' E 001°56'1211.9
2014-Dec-09 03:34N 40°09' E 001°44'1212.3
2014-Dec-09 02:33N 40°03' E 001°30'1312.6
2014-Dec-09 01:33N 39°57' E 001°16'1212.3
2014-Dec-09 00:34N 39°51' E 001°02'1110.3
2014-Dec-08 23:27N 39°44' E 000°50'4511.5
2014-Dec-08 19:33N 39°28' W 000°04'1111.0
2014-Dec-08 18:33N 39°26' W 000°18'1 1.0
2014-Dec-08 17:33N 39°27' W 000°19'0 0.0
2014-Dec-08 16:33N 39°27' W 000°19'0 0.0
2014-Dec-08 15:33N 39°27' W 000°19'0 0.0
2014-Dec-08 14:33N 39°27' W 000°19'0 0.0
2014-Dec-08 13:33N 39°27' W 000°19'0 0.0
2014-Dec-08 12:33N 39°27' W 000°19'0 0.0
2014-Dec-08 11:33N 39°27' W 000°19'0 0.0
2014-Dec-08 10:33N 39°27' W 000°19'0 0.0
2014-Dec-08 09:33N 39°27' W 000°19'0 0.0
2014-Dec-08 08:33N 39°27' W 000°19'0 0.0
2014-Dec-08 07:33N 39°27' W 000°19'0 0.0
2014-Dec-08 06:33N 39°27' W 000°19'0 0.0
2014-Dec-08 05:33N 39°27' W 000°19'0 0.0
2014-Dec-08 04:33N 39°27' W 000°19'0 0.0
2014-Dec-08 03:33N 39°27' W 000°19'0 0.1
2014-Dec-08 02:33N 39°27' W 000°19'2 2.0
2014-Dec-08 01:33N 39°25' W 000°17'1110.4
2014-Dec-08 00:31N 39°18' W 000°07'8410.6
2014-Dec-07 16:32N 37°53' W 000°13'1515.5
2014-Dec-07 15:34N 37°41' W 000°24'1515.0
2014-Dec-07 14:33N 37°29' W 000°36'1514.9
2014-Dec-07 13:34N 37°19' W 000°50'1615.6
2014-Dec-07 12:33N 37°09' W 001°05'20414.6
2014-Dec-06 22:33N 36°06' W 005°06'1413.9
2014-Dec-06 21:34N 36°06' W 005°23'2 2.2
2014-Dec-06 20:34N 36°08' W 005°25'0 0.0
2014-Dec-06 19:31N 36°08' W 005°25'0 0.0
2014-Dec-06 18:33N 36°08' W 005°25'0 0.0
2014-Dec-06 17:30N 36°08' W 005°25'0 0.0
2014-Dec-06 16:31N 36°08' W 005°25'0 0.0
2014-Dec-06 15:25N 36°08' W 005°25'0 0.0
2014-Dec-06 14:33N 36°08' W 005°25'0 0.0
2014-Dec-06 13:06N 36°08' W 005°25'0 0.0
2014-Dec-06 12:33N 36°08' W 005°25'0 0.0
2014-Dec-06 11:34N 36°08' W 005°25'0 0.0
2014-Dec-06 10:34N 36°08' W 005°25'0 0.0
2014-Dec-06 09:31N 36°08' W 005°25'0 0.0
2014-Dec-06 08:31N 36°08' W 005°25'0 0.0
2014-Dec-06 07:31N 36°08' W 005°25'0 0.0
2014-Dec-06 06:33N 36°08' W 005°25'2 2.1
2014-Dec-06 05:33N 36°07' W 005°23'5 4.6
2014-Dec-06 04:32N 36°03' W 005°20'5 4.7
2014-Dec-06 03:33N 35°59' W 005°24'13 9.9
2014-Dec-06 02:12N 35°55' W 005°40'1111.7
2014-Dec-06 01:17N 35°55' W 005°53'1013.2
2014-Dec-06 00:33N 35°54' W 006°05'  

Dump ship's entire track history